地図

経路データ

SID SEASON NUMBER BASIN SUBBASIN NAME ISO_TIME NATURE LAT LON WMO_WIND WMO_PRES WMO_AGENCY TRACK_TYPE DIST2LAND LANDFALL IFLAG USA_AGENCY USA_ATCF_ID USA_LAT USA_LON USA_RECORD USA_STATUS USA_WIND USA_PRES USA_SSHS USA_R34_NE USA_R34_SE USA_R34_SW USA_R34_NW USA_R50_NE USA_R50_SE USA_R50_SW USA_R50_NW USA_R64_NE USA_R64_SE USA_R64_SW USA_R64_NW USA_POCI USA_ROCI USA_RMW USA_EYE TOKYO_LAT TOKYO_LON TOKYO_GRADE TOKYO_WIND TOKYO_PRES TOKYO_R50_DIR TOKYO_R50_LONG TOKYO_R50_SHORT TOKYO_R30_DIR TOKYO_R30_LONG TOKYO_R30_SHORT TOKYO_LAND CMA_LAT CMA_LON CMA_CAT CMA_WIND CMA_PRES HKO_LAT HKO_LON HKO_CAT HKO_WIND HKO_PRES NEWDELHI_LAT NEWDELHI_LON NEWDELHI_GRADE NEWDELHI_WIND NEWDELHI_PRES NEWDELHI_CI NEWDELHI_DP NEWDELHI_POCI REUNION_LAT REUNION_LON REUNION_TYPE REUNION_WIND REUNION_PRES REUNION_TNUM REUNION_CI REUNION_RMW REUNION_R34_NE REUNION_R34_SE REUNION_R34_SW REUNION_R34_NW REUNION_R50_NE REUNION_R50_SE REUNION_R50_SW REUNION_R50_NW REUNION_R64_NE REUNION_R64_SE REUNION_R64_SW REUNION_R64_NW BOM_LAT BOM_LON BOM_TYPE BOM_WIND BOM_PRES BOM_TNUM BOM_CI BOM_RMW BOM_R34_NE BOM_R34_SE BOM_R34_SW BOM_R34_NW BOM_R50_NE BOM_R50_SE BOM_R50_SW BOM_R50_NW BOM_R64_NE BOM_R64_SE BOM_R64_SW BOM_R64_NW BOM_ROCI BOM_POCI BOM_EYE BOM_POS_METHOD BOM_PRES_METHOD NADI_LAT NADI_LON NADI_CAT NADI_WIND NADI_PRES WELLINGTON_LAT WELLINGTON_LON WELLINGTON_WIND WELLINGTON_PRES DS824_LAT DS824_LON DS824_STAGE DS824_WIND DS824_PRES TD9636_LAT TD9636_LON TD9636_STAGE TD9636_WIND TD9636_PRES TD9635_LAT TD9635_LON TD9635_WIND TD9635_PRES TD9635_ROCI NEUMANN_LAT NEUMANN_LON NEUMANN_CLASS NEUMANN_WIND NEUMANN_PRES MLC_LAT MLC_LON MLC_CLASS MLC_WIND MLC_PRES USA_GUST BOM_GUST BOM_GUST_PER REUNION_GUST REUNION_GUST_PER USA_SEAHGT USA_SEARAD_NE USA_SEARAD_SE USA_SEARAD_SW USA_SEARAD_NW STORM_SPEED STORM_DIR
1966349N09149 1966 118 WP MM NOT_NAMED 1966-12-15 00:00:00 TS 9.00000 149.000 main 1256 1245 __O___________ -1 9.00000 149.000 0 1006 23 270
1966349N09149 1966 118 WP MM NOT_NAMED 1966-12-15 03:00:00 TS 9.00066 147.847 main 1244 1243 __P___________ -1 9.00066 147.847 0 1006 23 270
1966349N09149 1966 118 WP MM NOT_NAMED 1966-12-15 06:00:00 TS 9.00000 146.700 main 1243 1243 __O___________ -1 9.00000 146.700 0 1006 23 270
1966349N09149 1966 118 WP MM NOT_NAMED 1966-12-15 09:00:00 TS 8.99980 145.570 main 1248 1248 __P___________ -1 8.99980 145.570 0 1006 22 270
1966349N09149 1966 118 WP MM NOT_NAMED 1966-12-15 12:00:00 TS 9.00000 144.500 main 1265 1265 __O___________ -1 9.00000 144.500 0 1006 21 270
1966349N09149 1966 118 WP MM NOT_NAMED 1966-12-15 15:00:00 TS 8.99983 143.490 main 1290 1284 __P___________ -1 8.99983 143.490 0 1005 19 270
1966349N09149 1966 118 WP MM NOT_NAMED 1966-12-15 18:00:00 TS 9.00000 142.600 main 1284 1256 __O___________ -1 9.00000 142.600 0 1004 16 270
1966349N09149 1966 118 WP MM NOT_NAMED 1966-12-15 21:00:00 TS 8.99213 141.862 main 1256 1233 __P___________ -1 8.99213 141.862 0 1004 14 270
1966349N09149 1966 118 WP MM NOT_NAMED 1966-12-16 00:00:00 TS 9.00000 141.200 main 1233 1210 __O___________ -1 9.00000 141.200 0 1004 14 272
1966349N09149 1966 118 WP MM NOT_NAMED 1966-12-16 03:00:00 TS 9.04252 140.470 main 1210 1190 __P___________ -1 9.04252 140.470 0 1004 14 274
1966349N09149 1966 118 WP MM NOT_NAMED 1966-12-16 06:00:00 TS 9.10000 139.800 main 1190 1171 __O___________ -1 9.10000 139.800 0 1004 12 275
1966349N09149 1966 118 WP MM NOT_NAMED 1966-12-16 09:00:00 TS 9.14973 139.285 main 1171 1164 __P___________ -1 9.14973 139.285 0 1004 10 276
1966349N09149 1966 118 WP MM NOT_NAMED 1966-12-16 12:00:00 TS 9.20000 138.800 main 1164 1151 __O___________ -1 9.20000 138.800 0 1004 10 276
1966349N09149 1966 118 WP MM NOT_NAMED 1966-12-16 15:00:00 TS 9.26485 138.238 main 1156 1142 __P___________ -1 9.26485 138.238 0 1004 12 275
1966349N09149 1966 118 WP MM NOT_NAMED 1966-12-16 18:00:00 TS 9.30000 137.600 main 1142 1129 __O___________ -1 9.30000 137.600 0 1004 13 270
1966349N09149 1966 118 WP MM NOT_NAMED 1966-12-16 21:00:00 TS 9.27247 136.872 main 1129 1059 __P___________ -1 9.27247 136.872 0 1003 15 266
1966349N09149 1966 118 WP MM NOT_NAMED 1966-12-17 00:00:00 TS 9.20000 136.100 main 1059 981 __O___________ -1 9.20000 136.100 0 1002 15 264
1966349N09149 1966 118 WP MM NOT_NAMED 1966-12-17 03:00:00 TS 9.11493 135.335 main 970 892 __P___________ -1 9.11493 135.335 0 1002 15 262
1966349N09149 1966 118 WP MM NOT_NAMED 1966-12-17 06:00:00 TS 9.00000 134.600 main 892 825 __O___________ -1 9.00000 134.600 0 1002 14 259
1966349N09149 1966 118 WP MM NOT_NAMED 1966-12-17 09:00:00 TS 8.85731 133.935 main 815 746 __P___________ -1 8.85731 133.935 0 1002 13 257
1966349N09149 1966 118 WP MM NOT_NAMED 1966-12-17 12:00:00 TS 8.70000 133.300 main 746 679 __O___________ -1 8.70000 133.300 0 1002 13 257
1966349N09149 1966 118 WP MM NOT_NAMED 1966-12-17 15:00:00 TS 8.56485 132.658 main 679 600 __P___________ -1 8.56485 132.658 0 1002 13 257
1966349N09149 1966 118 WP MM NOT_NAMED 1966-12-17 18:00:00 TS 8.40000 132.000 main 600 521 __O___________ -1 8.40000 132.000 0 1002 14 254
1966349N09149 1966 118 WP MM NOT_NAMED 1966-12-17 21:00:00 TS 8.16499 131.292 main 521 408 __P___________ -1 8.16499 131.292 0 1002 18 252
1966349N09149 1966 118 WP MM NOT_NAMED 1966-12-18 00:00:00 TS 7.83333 130.233 main 397 319 O_O______O____ jtwc_wp WP391966 7.70000 129.500 TD -1 7.90000 130.600 0 1002 7.70000 129.500 TC 19 254
1966349N09149 1966 118 WP MM NOT_NAMED 1966-12-18 03:00:00 TS 7.64244 129.501 main 319 253 P_P______P____ WP391966 7.64260 129.002 TD -1 7.64229 130.000 0 1000 7.64260 129.002 TC 14 257
1966349N09149 1966 118 WP MM NOT_NAMED 1966-12-18 06:00:00 TS 7.52000 128.860 main 253 187 O_O______O____ jtwc_wp WP391966 7.60000 128.500 TD -1 7.40000 129.400 1 29 999 7.60000 128.500 TC 13 261
1966349N09149 1966 118 WP MM NOT_NAMED 1966-12-18 09:00:00 TS 7.43412 128.236 main 176 121 P_P______P____ WP391966 7.58497 127.993 TD -1 7.13243 128.722 1 29 999 7.58497 127.993 TC 12 264
1966349N09149 1966 118 WP MM NOT_NAMED 1966-12-18 12:00:00 TS 7.40000 127.667 main 121 55 O_O______O____ jtwc_wp WP391966 7.60000 127.500 TD -1 7.00000 128.000 1 29 999 7.60000 127.500 TC 11 271
1966349N09149 1966 118 WP MM NOT_NAMED 1966-12-18 15:00:00 TS 7.45251 127.092 main 55 0 P_P______P____ WP391966 7.64243 127.043 TD -1 7.07268 127.190 1 29 999 7.64243 127.043 TC 11 279
1966349N09149 1966 118 WP MM NOT_NAMED 1966-12-18 18:00:00 TS 7.58000 126.560 main 0 0 O_O______O____ jtwc_wp WP391966 7.70000 126.600 TD -1 7.40000 126.500 1 29 1000 7.70000 126.600 TC 10 294
1966349N09149 1966 118 WP MM NOT_NAMED 1966-12-18 21:00:00 TS 7.86742 126.154 main 0 0 P_P______P____ WP391966 7.75261 126.153 TD -1 7.98222 126.155 1 29 1002 7.75261 126.153 TC 11 319
1966349N09149 1966 118 WP MM NOT_NAMED 1966-12-19 00:00:00 TS 8.40000 125.833 main 0 0 O_O______O____ jtwc_wp WP391966 7.80000 125.700 TD -1 8.70000 125.900 1 29 1004 7.80000 125.700 TC 17 338
1966349N09149 1966 118 WP MM NOT_NAMED 1966-12-19 03:00:00 TS 9.43224 125.525 main 0 0 __P___________ WP391966 TD -1 9.43224 125.525 1 29 1005 TC 18 333
1966349N09149 1966 118 WP MM NOT_NAMED 1966-12-19 06:00:00 TS 10.0000 125.000 main 0 0 __O___________ -1 10.0000 125.000 1 29 1006 15 302
1966349N09149 1966 118 WP MM NOT_NAMED 1966-12-19 09:00:00 TS 10.2106 124.262 main 11 0 __P___________ -1 10.2106 124.262 1 1006 16 277
1966349N09149 1966 118 WP MM NOT_NAMED 1966-12-19 12:00:00 TS 10.2000 123.400 main 10 __O___________ -1 10.2000 123.400 0 1006 17 269

デジタル台風データ・検索

IBTrACS Databaseについて

本データベースは、米国NOAAが公開する1842年以降の世界の熱帯低気圧のベストトラックデータアーカイブInternational Best Track Archive for Climate Stewardship (IBTrACS)を、ウェブで閲覧しやすい形式に変換したものです。

最終更新日:2021-10-25